sensor_id;sensor_type;location;lat;lon;timestamp;pressure;altitude;pressure_sealevel;temperature;humidity
31225;BME280;17847;31.524;74.366;2023-07-02T00:02:10;97740.53;;;28.12;93.79
31225;BME280;17847;31.524;74.366;2023-07-02T00:04:40;97743.25;;;28.12;93.92
31225;BME280;17847;31.524;74.366;2023-07-02T00:07:09;97735.56;;;28.15;93.68
31225;BME280;17847;31.524;74.366;2023-07-02T00:09:39;97743.72;;;28.15;93.55
31225;BME280;17847;31.524;74.366;2023-07-02T00:12:10;97742.56;;;28.16;93.55
31225;BME280;17847;31.524;74.366;2023-07-02T00:14:40;97739.53;;;28.17;93.13
31225;BME280;17847;31.524;74.366;2023-07-02T00:17:09;97746.91;;;28.17;93.37
31225;BME280;17847;31.524;74.366;2023-07-02T00:19:41;97749.63;;;28.17;93.24
31225;BME280;17847;31.524;74.366;2023-07-02T00:22:10;97745.47;;;28.19;93.84
31225;BME280;17847;31.524;74.366;2023-07-02T00:24:40;97747.03;;;28.20;93.18
31225;BME280;17847;31.524;74.366;2023-07-02T00:27:10;97746.59;;;28.18;93.50
31225;BME280;17847;31.524;74.366;2023-07-02T00:29:39;97736.75;;;28.26;92.83
31225;BME280;17847;31.524;74.366;2023-07-02T00:32:08;97737.22;;;28.28;93.05
31225;BME280;17847;31.524;74.366;2023-07-02T00:34:38;97736.09;;;28.29;93.28
31225;BME280;17847;31.524;74.366;2023-07-02T00:37:08;97732.25;;;28.30;93.36
31225;BME280;17847;31.524;74.366;2023-07-02T00:39:38;97724.53;;;28.32;93.17
31225;BME280;17847;31.524;74.366;2023-07-02T00:42:08;97724.81;;;28.39;93.47
31225;BME280;17847;31.524;74.366;2023-07-02T00:44:40;97721.75;;;28.40;93.87
31225;BME280;17847;31.524;74.366;2023-07-02T00:47:11;97723.00;;;28.43;93.69
31225;BME280;17847;31.524;74.366;2023-07-02T00:49:41;97717.88;;;28.41;94.21
31225;BME280;17847;31.524;74.366;2023-07-02T00:52:10;97715.31;;;28.45;93.97
31225;BME280;17847;31.524;74.366;2023-07-02T00:54:40;97728.78;;;28.41;94.32
31225;BME280;17847;31.524;74.366;2023-07-02T00:57:10;97726.53;;;28.43;95.02
31225;BME280;17847;31.524;74.366;2023-07-02T00:59:41;97726.66;;;28.47;95.36
31225;BME280;17847;31.524;74.366;2023-07-02T01:02:11;97725.66;;;28.51;95.73
31225;BME280;17847;31.524;74.366;2023-07-02T01:04:43;97722.28;;;28.54;95.39
31225;BME280;17847;31.524;74.366;2023-07-02T01:07:18;97733.97;;;28.55;95.91
31225;BME280;17847;31.524;74.366;2023-07-02T01:09:48;97740.00;;;28.61;94.67
31225;BME280;17847;31.524;74.366;2023-07-02T01:12:18;97740.00;;;28.61;94.39
31225;BME280;17847;31.524;74.366;2023-07-02T01:14:53;97732.63;;;28.61;93.16
31225;BME280;17847;31.524;74.366;2023-07-02T01:17:27;97729.84;;;28.70;92.52
31225;BME280;17847;31.524;74.366;2023-07-02T01:19:58;97726.47;;;28.73;93.31
31225;BME280;17847;31.524;74.366;2023-07-02T01:22:28;97731.59;;;28.74;93.98
31225;BME280;17847;31.524;74.366;2023-07-02T01:25:02;97728.06;;;28.74;93.26
31225;BME280;17847;31.524;74.366;2023-07-02T01:27:32;97720.81;;;28.78;93.16
31225;BME280;17847;31.524;74.366;2023-07-02T01:30:01;97718.09;;;28.78;93.38
31225;BME280;17847;31.524;74.366;2023-07-02T01:32:31;97727.97;;;28.82;92.14
31225;BME280;17847;31.524;74.366;2023-07-02T01:35:01;97722.66;;;28.86;92.77
31225;BME280;17847;31.524;74.366;2023-07-02T01:37:30;97721.31;;;28.92;92.21
31225;BME280;17847;31.524;74.366;2023-07-02T01:40:07;97732.16;;;29.00;89.58
31225;BME280;17847;31.524;74.366;2023-07-02T01:42:37;97722.88;;;29.14;87.90
31225;BME280;17847;31.524;74.366;2023-07-02T01:45:08;97729.28;;;29.30;87.57
31225;BME280;17847;31.524;74.366;2023-07-02T01:47:38;97725.81;;;29.41;86.85
31225;BME280;17847;31.524;74.366;2023-07-02T01:50:09;97733.19;;;29.53;87.84
31225;BME280;17847;31.524;74.366;2023-07-02T01:52:39;97734.34;;;29.76;87.44
31225;BME280;17847;31.524;74.366;2023-07-02T01:55:08;97736.31;;;30.00;86.56
31225;BME280;17847;31.524;74.366;2023-07-02T01:57:38;97736.28;;;30.49;83.70
31225;BME280;17847;31.524;74.366;2023-07-02T02:00:08;97734.97;;;30.86;81.45
31225;BME280;17847;31.524;74.366;2023-07-02T02:02:44;97737.03;;;31.17;78.43
31225;BME280;17847;31.524;74.366;2023-07-02T02:05:14;97739.72;;;31.45;75.82
31225;BME280;17847;31.524;74.366;2023-07-02T02:07:43;97741.16;;;31.70;75.73
31225;BME280;17847;31.524;74.366;2023-07-02T02:10:12;97747.59;;;31.93;74.45
31225;BME280;17847;31.524;74.366;2023-07-02T02:12:44;97751.22;;;32.13;73.51
31225;BME280;17847;31.524;74.366;2023-07-02T02:15:14;97758.53;;;32.25;72.85
31225;BME280;17847;31.524;74.366;2023-07-02T02:17:43;97767.78;;;32.36;73.47
31225;BME280;17847;31.524;74.366;2023-07-02T02:20:14;97766.22;;;32.35;72.30
31225;BME280;17847;31.524;74.366;2023-07-02T02:22:43;97757.53;;;32.33;72.89
31225;BME280;17847;31.524;74.366;2023-07-02T02:25:13;97755.00;;;32.24;71.64
31225;BME280;17847;31.524;74.366;2023-07-02T02:27:42;97751.13;;;32.09;72.22
31225;BME280;17847;31.524;74.366;2023-07-02T02:30:12;97750.78;;;31.95;72.09
31225;BME280;17847;31.524;74.366;2023-07-02T02:32:41;97754.41;;;31.84;73.29
31225;BME280;17847;31.524;74.366;2023-07-02T02:35:11;97752.81;;;31.83;70.81
31225;BME280;17847;31.524;74.366;2023-07-02T02:37:41;97748.19;;;32.02;69.95
31225;BME280;17847;31.524;74.366;2023-07-02T02:40:12;97752.25;;;32.24;68.99
31225;BME280;17847;31.524;74.366;2023-07-02T02:42:42;97754.31;;;32.46;68.10
31225;BME280;17847;31.524;74.366;2023-07-02T02:45:11;97748.50;;;32.67;67.11
31225;BME280;17847;31.524;74.366;2023-07-02T02:47:41;97751.25;;;32.86;68.13
31225;BME280;17847;31.524;74.366;2023-07-02T02:50:12;97738.97;;;33.00;67.53
31225;BME280;17847;31.524;74.366;2023-07-02T02:52:42;97738.31;;;33.06;66.21
31225;BME280;17847;31.524;74.366;2023-07-02T02:55:12;97736.16;;;33.15;64.55
31225;BME280;17847;31.524;74.366;2023-07-02T02:57:42;97741.34;;;33.20;65.25
31225;BME280;17847;31.524;74.366;2023-07-02T03:00:12;97742.31;;;33.28;65.75
31225;BME280;17847;31.524;74.366;2023-07-02T03:02:41;97736.72;;;33.24;64.73
31225;BME280;17847;31.524;74.366;2023-07-02T03:05:11;97724.94;;;33.24;65.41
31225;BME280;17847;31.524;74.366;2023-07-02T03:07:42;97720.63;;;33.23;66.98
31225;BME280;17847;31.524;74.366;2023-07-02T03:10:11;97725.19;;;33.15;66.25
31225;BME280;17847;31.524;74.366;2023-07-02T03:12:41;97726.97;;;33.08;65.43
31225;BME280;17847;31.524;74.366;2023-07-02T03:15:11;97725.25;;;33.00;65.74
31225;BME280;17847;31.524;74.366;2023-07-02T03:17:41;97731.03;;;32.94;66.24
31225;BME280;17847;31.524;74.366;2023-07-02T03:20:11;97729.88;;;32.95;67.36
31225;BME280;17847;31.524;74.366;2023-07-02T03:22:41;97727.50;;;32.94;67.60
31225;BME280;17847;31.524;74.366;2023-07-02T03:25:10;97729.81;;;32.92;67.01
31225;BME280;17847;31.524;74.366;2023-07-02T03:27:39;97725.44;;;32.87;65.49
31225;BME280;17847;31.524;74.366;2023-07-02T03:30:09;97726.06;;;32.81;66.67
31225;BME280;17847;31.524;74.366;2023-07-02T03:32:39;97724.78;;;32.75;66.77
31225;BME280;17847;31.524;74.366;2023-07-02T03:35:09;97726.56;;;32.67;67.31
31225;BME280;17847;31.524;74.366;2023-07-02T03:37:40;97727.31;;;32.64;67.51
31225;BME280;17847;31.524;74.366;2023-07-02T03:40:13;97731.19;;;32.63;69.03
31225;BME280;17847;31.524;74.366;2023-07-02T03:42:43;97733.59;;;32.65;70.67
31225;BME280;17847;31.524;74.366;2023-07-02T03:45:13;97729.69;;;32.66;68.43
31225;BME280;17847;31.524;74.366;2023-07-02T03:47:42;97728.16;;;32.68;68.83
31225;BME280;17847;31.524;74.366;2023-07-02T03:50:12;97736.53;;;32.75;68.35
31225;BME280;17847;31.524;74.366;2023-07-02T03:52:41;97736.25;;;32.80;67.29
31225;BME280;17847;31.524;74.366;2023-07-02T03:55:11;97735.53;;;32.83;68.10
31225;BME280;17847;31.524;74.366;2023-07-02T03:57:41;97729.66;;;32.85;68.40
31225;BME280;17847;31.524;74.366;2023-07-02T04:00:11;97737.41;;;32.79;70.32
31225;BME280;17847;31.524;74.366;2023-07-02T04:02:43;97731.41;;;32.74;70.16
31225;BME280;17847;31.524;74.366;2023-07-02T04:05:13;97729.31;;;32.67;71.02
31225;BME280;17847;31.524;74.366;2023-07-02T04:07:43;97735.59;;;32.68;71.44
31225;BME280;17847;31.524;74.366;2023-07-02T04:10:12;97736.41;;;32.68;71.85
31225;BME280;17847;31.524;74.366;2023-07-02T04:12:41;97737.72;;;32.74;72.39
31225;BME280;17847;31.524;74.366;2023-07-02T04:15:12;97724.47;;;32.80;72.80
31225;BME280;17847;31.524;74.366;2023-07-02T04:17:41;97727.31;;;32.83;69.82
31225;BME280;17847;31.524;74.366;2023-07-02T04:20:12;97720.50;;;32.77;69.55
31225;BME280;17847;31.524;74.366;2023-07-02T04:22:42;97728.47;;;32.82;68.71
31225;BME280;17847;31.524;74.366;2023-07-02T04:25:12;97717.53;;;32.86;69.71
31225;BME280;17847;31.524;74.366;2023-07-02T04:28:04;97716.41;;;32.87;71.60
31225;BME280;17847;31.524;74.366;2023-07-02T04:30:33;97705.03;;;32.88;70.26
31225;BME280;17847;31.524;74.366;2023-07-02T04:33:03;97712.91;;;32.90;70.95
31225;BME280;17847;31.524;74.366;2023-07-02T04:35:34;97715.31;;;32.91;70.28
31225;BME280;17847;31.524;74.366;2023-07-02T04:38:04;97711.78;;;32.91;69.80
31225;BME280;17847;31.524;74.366;2023-07-02T04:40:34;97703.53;;;32.91;69.19
31225;BME280;17847;31.524;74.366;2023-07-02T04:43:04;97706.63;;;32.89;69.98
31225;BME280;17847;31.524;74.366;2023-07-02T04:45:34;97694.88;;;32.89;69.38
31225;BME280;17847;31.524;74.366;2023-07-02T04:48:06;97702.09;;;32.97;70.63
31225;BME280;17847;31.524;74.366;2023-07-02T04:50:36;97695.44;;;32.98;69.85
31225;BME280;17847;31.524;74.366;2023-07-02T04:53:06;97696.75;;;32.85;68.94
31225;BME280;17847;31.524;74.366;2023-07-02T04:55:35;97694.34;;;33.03;71.25
31225;BME280;17847;31.524;74.366;2023-07-02T04:58:05;97694.34;;;33.03;70.21
31225;BME280;17847;31.524;74.366;2023-07-02T05:00:34;97684.63;;;32.86;68.60
31225;BME280;17847;31.524;74.366;2023-07-02T05:03:04;97689.59;;;32.80;68.33
31225;BME280;17847;31.524;74.366;2023-07-02T05:05:34;97697.59;;;32.66;68.44
31225;BME280;17847;31.524;74.366;2023-07-02T05:08:04;97688.75;;;32.76;67.44
31225;BME280;17847;31.524;74.366;2023-07-02T05:10:36;97688.91;;;32.83;67.25
31225;BME280;17847;31.524;74.366;2023-07-02T05:13:05;97685.28;;;32.60;68.17
31225;BME280;17847;31.524;74.366;2023-07-02T05:15:35;97678.06;;;32.33;69.45
31225;BME280;17847;31.524;74.366;2023-07-02T05:18:04;97676.34;;;32.44;69.09
31225;BME280;17847;31.524;74.366;2023-07-02T05:20:36;97684.22;;;32.65;68.04
31225;BME280;17847;31.524;74.366;2023-07-02T05:23:05;97679.44;;;32.81;66.00
31225;BME280;17847;31.524;74.366;2023-07-02T05:25:35;97678.44;;;33.12;64.77
31225;BME280;17847;31.524;74.366;2023-07-02T05:28:04;97680.38;;;33.53;62.79
31225;BME280;17847;31.524;74.366;2023-07-02T05:30:34;97674.34;;;33.67;60.96
31225;BME280;17847;31.524;74.366;2023-07-02T05:33:03;97674.59;;;33.84;63.22
31225;BME280;17847;31.524;74.366;2023-07-02T05:35:32;97673.50;;;34.45;60.82
31225;BME280;17847;31.524;74.366;2023-07-02T05:38:02;97669.09;;;34.70;58.58
31225;BME280;17847;31.524;74.366;2023-07-02T05:40:31;97668.38;;;34.74;59.37
31225;BME280;17847;31.524;74.366;2023-07-02T05:43:00;97669.09;;;35.07;59.26
31225;BME280;17847;31.524;74.366;2023-07-02T05:45:31;97663.13;;;35.39;54.65
31225;BME280;17847;31.524;74.366;2023-07-02T05:48:00;97662.09;;;35.57;59.24
31225;BME280;17847;31.524;74.366;2023-07-02T05:50:30;97658.72;;;35.75;54.36
31225;BME280;17847;31.524;74.366;2023-07-02T05:53:00;97661.13;;;35.83;58.56
31225;BME280;17847;31.524;74.366;2023-07-02T05:55:29;97664.28;;;35.85;56.00
31225;BME280;17847;31.524;74.366;2023-07-02T05:57:58;97657.94;;;35.78;54.38
31225;BME280;17847;31.524;74.366;2023-07-02T06:00:31;97647.72;;;35.82;54.86
31225;BME280;17847;31.524;74.366;2023-07-02T06:03:00;97640.72;;;35.98;55.69
31225;BME280;17847;31.524;74.366;2023-07-02T06:05:30;97647.03;;;35.99;53.71
31225;BME280;17847;31.524;74.366;2023-07-02T06:08:00;97639.19;;;35.50;52.29
31225;BME280;17847;31.524;74.366;2023-07-02T06:10:30;97636.88;;;35.55;52.94
31225;BME280;17847;31.524;74.366;2023-07-02T06:13:00;97631.19;;;35.82;54.78
31225;BME280;17847;31.524;74.366;2023-07-02T06:15:30;97637.13;;;35.84;56.58
31225;BME280;17847;31.524;74.366;2023-07-02T06:18:00;97632.84;;;35.93;54.48
31225;BME280;17847;31.524;74.366;2023-07-02T06:20:30;97632.16;;;36.11;55.59
31225;BME280;17847;31.524;74.366;2023-07-02T06:23:00;97633.56;;;35.83;50.84
31225;BME280;17847;31.524;74.366;2023-07-02T06:25:30;97625.34;;;35.94;54.50
31225;BME280;17847;31.524;74.366;2023-07-02T06:28:01;97625.78;;;35.99;51.45
31225;BME280;17847;31.524;74.366;2023-07-02T06:30:31;97625.41;;;36.01;53.91
31225;BME280;17847;31.524;74.366;2023-07-02T06:33:01;97623.50;;;35.54;53.03
31225;BME280;17847;31.524;74.366;2023-07-02T06:35:30;97620.94;;;35.79;53.22
31225;BME280;17847;31.524;74.366;2023-07-02T06:38:00;97620.94;;;35.79;52.74
31225;BME280;17847;31.524;74.366;2023-07-02T06:40:30;97619.78;;;35.80;51.35
31225;BME280;17847;31.524;74.366;2023-07-02T06:42:59;97620.00;;;35.60;50.35
31225;BME280;17847;31.524;74.366;2023-07-02T06:45:29;97618.44;;;35.63;51.95
31225;BME280;17847;31.524;74.366;2023-07-02T06:48:00;97611.16;;;35.88;52.57
31225;BME280;17847;31.524;74.366;2023-07-02T06:50:30;97614.66;;;35.82;48.76
31225;BME280;17847;31.524;74.366;2023-07-02T06:53:02;97615.47;;;35.86;52.29
31225;BME280;17847;31.524;74.366;2023-07-02T06:55:32;97609.16;;;35.85;53.69
31225;BME280;17847;31.524;74.366;2023-07-02T06:58:02;97620.94;;;35.79;50.58
31225;BME280;17847;31.524;74.366;2023-07-02T07:00:34;97613.66;;;35.53;56.26
31225;BME280;17847;31.524;74.366;2023-07-02T07:03:07;97615.53;;;35.93;57.60
31225;BME280;17847;31.524;74.366;2023-07-02T07:05:36;97615.66;;;36.21;54.75
31225;BME280;17847;31.524;74.366;2023-07-02T07:08:08;97610.03;;;36.00;50.60
31225;BME280;17847;31.524;74.366;2023-07-02T07:10:39;97610.13;;;36.14;55.51
31225;BME280;17847;31.524;74.366;2023-07-02T07:13:09;97602.91;;;35.92;51.95
31225;BME280;17847;31.524;74.366;2023-07-02T07:15:39;97599.53;;;36.23;52.32
31225;BME280;17847;31.524;74.366;2023-07-02T07:18:09;97595.31;;;36.51;54.48
31225;BME280;17847;31.524;74.366;2023-07-02T07:20:41;97598.88;;;36.58;55.71
31225;BME280;17847;31.524;74.366;2023-07-02T07:23:12;97596.09;;;36.58;52.89
31225;BME280;17847;31.524;74.366;2023-07-02T07:25:41;97591.81;;;36.64;53.16
31225;BME280;17847;31.524;74.366;2023-07-02T07:28:17;97595.78;;;36.81;51.73
31225;BME280;17847;31.524;74.366;2023-07-02T07:30:47;97595.00;;;36.73;52.35
31225;BME280;17847;31.524;74.366;2023-07-02T07:33:17;97585.13;;;36.69;51.76
31225;BME280;17847;31.524;74.366;2023-07-02T07:35:47;97587.09;;;36.72;52.76
31225;BME280;17847;31.524;74.366;2023-07-02T07:38:49;97587.47;;;36.70;49.79
31225;BME280;17847;31.524;74.366;2023-07-02T07:41:19;97586.97;;;36.36;48.25
31225;BME280;17847;31.524;74.366;2023-07-02T07:43:48;97570.84;;;36.42;49.98
31225;BME280;17847;31.524;74.366;2023-07-02T07:46:18;97575.22;;;36.61;49.39
31225;BME280;17847;31.524;74.366;2023-07-02T07:48:52;97572.13;;;36.73;51.54
31225;BME280;17847;31.524;74.366;2023-07-02T07:51:40;97568.19;;;36.77;48.14
31225;BME280;17847;31.524;74.366;2023-07-02T07:54:10;97574.84;;;36.69;50.44
31225;BME280;17847;31.524;74.366;2023-07-02T07:56:41;97565.03;;;36.72;49.99
31225;BME280;17847;31.524;74.366;2023-07-02T07:59:11;97557.94;;;36.85;49.80
31225;BME280;17847;31.524;74.366;2023-07-02T08:01:44;97551.63;;;36.99;51.15
31225;BME280;17847;31.524;74.366;2023-07-02T08:04:15;97551.63;;;36.84;49.02
31225;BME280;17847;31.524;74.366;2023-07-02T08:06:45;97546.13;;;37.06;50.54
31225;BME280;17847;31.524;74.366;2023-07-02T08:09:15;97544.56;;;37.08;49.34
31225;BME280;17847;31.524;74.366;2023-07-02T08:11:45;97543.78;;;37.11;48.93
31225;BME280;17847;31.524;74.366;2023-07-02T08:14:19;97543.34;;;37.23;51.37
31225;BME280;17847;31.524;74.366;2023-07-02T08:16:49;97542.19;;;37.10;51.04
31225;BME280;17847;31.524;74.366;2023-07-02T08:19:18;97541.38;;;36.99;49.02
31225;BME280;17847;31.524;74.366;2023-07-02T08:21:49;97542.16;;;36.92;47.20
31225;BME280;17847;31.524;74.366;2023-07-02T08:24:18;97535.44;;;36.72;49.09
31225;BME280;17847;31.524;74.366;2023-07-02T08:26:48;97531.91;;;36.86;54.29
31225;BME280;17847;31.524;74.366;2023-07-02T08:29:18;97535.44;;;36.76;54.26
31225;BME280;17847;31.524;74.366;2023-07-02T08:31:49;97522.81;;;36.78;53.87
31225;BME280;17847;31.524;74.366;2023-07-02T08:34:19;97521.56;;;36.47;54.43
31225;BME280;17847;31.524;74.366;2023-07-02T08:36:49;97525.16;;;36.55;54.98
31225;BME280;17847;31.524;74.366;2023-07-02T08:39:18;97513.69;;;36.28;54.14
31225;BME280;17847;31.524;74.366;2023-07-02T08:41:48;97507.28;;;36.10;55.51
31225;BME280;17847;31.524;74.366;2023-07-02T08:44:20;97510.81;;;36.07;57.63
31225;BME280;17847;31.524;74.366;2023-07-02T08:46:53;97503.63;;;35.81;56.07
31225;BME280;17847;31.524;74.366;2023-07-02T08:49:25;97505.56;;;35.74;54.32
31225;BME280;17847;31.524;74.366;2023-07-02T08:51:55;97500.06;;;35.70;55.12
31225;BME280;17847;31.524;74.366;2023-07-02T08:54:24;97503.47;;;35.49;56.56
31225;BME280;17847;31.524;74.366;2023-07-02T08:56:55;97493.09;;;35.32;54.02
31225;BME280;17847;31.524;74.366;2023-07-02T08:59:26;97494.25;;;35.24;55.80
31225;BME280;17847;31.524;74.366;2023-07-02T09:01:55;97497.44;;;35.33;56.71
31225;BME280;17847;31.524;74.366;2023-07-02T09:04:25;97482.50;;;35.34;56.14
31225;BME280;17847;31.524;74.366;2023-07-02T09:07:07;97480.94;;;35.37;56.96
31225;BME280;17847;31.524;74.366;2023-07-02T09:09:50;97481.34;;;35.39;55.67
31225;BME280;17847;31.524;74.366;2023-07-02T09:12:27;97481.34;;;35.39;56.93
31225;BME280;17847;31.524;74.366;2023-07-02T09:15:03;97474.22;;;35.27;55.32
31225;BME280;17847;31.524;74.366;2023-07-02T09:17:36;97477.34;;;35.22;57.12
31225;BME280;17847;31.524;74.366;2023-07-02T09:20:07;97474.50;;;35.15;58.43
31225;BME280;17847;31.524;74.366;2023-07-02T09:22:40;97472.94;;;35.14;59.75
31225;BME280;17847;31.524;74.366;2023-07-02T09:25:11;97461.06;;;35.06;58.52
31225;BME280;17847;31.524;74.366;2023-07-02T09:27:41;97455.72;;;35.28;60.86
31225;BME280;17847;31.524;74.366;2023-07-02T09:30:16;97449.13;;;35.46;62.28
31225;BME280;17847;31.524;74.366;2023-07-02T09:32:46;97446.81;;;35.52;58.15
31225;BME280;17847;31.524;74.366;2023-07-02T09:35:17;97444.78;;;35.45;60.10
31225;BME280;17847;31.524;74.366;2023-07-02T09:37:47;97448.66;;;35.30;56.76
31225;BME280;17847;31.524;74.366;2023-07-02T09:40:19;97443.97;;;35.34;56.32
31225;BME280;17847;31.524;74.366;2023-07-02T09:42:50;97432.16;;;35.41;55.50
31225;BME280;17847;31.524;74.366;2023-07-02T09:45:22;97423.50;;;35.35;56.21
31225;BME280;17847;31.524;74.366;2023-07-02T09:47:57;97417.22;;;35.38;55.82
31225;BME280;17847;31.524;74.366;2023-07-02T09:50:29;97418.81;;;35.46;56.93
31225;BME280;17847;31.524;74.366;2023-07-02T09:52:59;97412.59;;;35.56;56.26
31225;BME280;17847;31.524;74.366;2023-07-02T09:55:29;97413.84;;;35.70;56.91
31225;BME280;17847;31.524;74.366;2023-07-02T09:57:59;97409.50;;;35.69;56.35
31225;BME280;17847;31.524;74.366;2023-07-02T10:00:29;97400.84;;;35.74;57.92
31225;BME280;17847;31.524;74.366;2023-07-02T10:03:00;97403.19;;;35.65;57.89
31225;BME280;17847;31.524;74.366;2023-07-02T10:05:32;97404.63;;;35.34;58.02
31225;BME280;17847;31.524;74.366;2023-07-02T10:08:15;97396.34;;;35.27;60.47
31225;BME280;17847;31.524;74.366;2023-07-02T10:10:50;97406.50;;;35.19;59.72
31225;BME280;17847;31.524;74.366;2023-07-02T10:13:27;97397.38;;;35.11;59.09
31225;BME280;17847;31.524;74.366;2023-07-02T10:16:04;97402.81;;;35.01;62.23
31225;BME280;17847;31.524;74.366;2023-07-02T10:18:35;97400.84;;;34.98;58.03
31225;BME280;17847;31.524;74.366;2023-07-02T10:21:18;97404.00;;;34.96;58.86
31225;BME280;17847;31.524;74.366;2023-07-02T10:23:48;97400.03;;;34.90;59.94
31225;BME280;17847;31.524;74.366;2023-07-02T10:26:18;97403.59;;;34.98;59.92
31225;BME280;17847;31.524;74.366;2023-07-02T10:28:59;97395.34;;;35.01;60.41
31225;BME280;17847;31.524;74.366;2023-07-02T10:31:28;97399.31;;;35.04;60.65
31225;BME280;17847;31.524;74.366;2023-07-02T10:34:00;97393.34;;;34.91;57.12
31225;BME280;17847;31.524;74.366;2023-07-02T10:36:29;97386.59;;;34.78;59.31
31225;BME280;17847;31.524;74.366;2023-07-02T10:39:02;97388.13;;;34.72;60.65
31225;BME280;17847;31.524;74.366;2023-07-02T10:41:35;97390.00;;;34.64;61.29
31225;BME280;17847;31.524;74.366;2023-07-02T10:44:10;97390.34;;;34.56;61.81
31225;BME280;17847;31.524;74.366;2023-07-02T10:46:45;97387.91;;;34.47;62.50
31225;BME280;17847;31.524;74.366;2023-07-02T10:49:17;97385.09;;;34.40;61.16
31225;BME280;17847;31.524;74.366;2023-07-02T10:51:59;97394.19;;;34.48;57.76
31225;BME280;17847;31.524;74.366;2023-07-02T10:54:44;97395.78;;;34.52;60.62
31225;BME280;17847;31.524;74.366;2023-07-02T10:57:17;97398.16;;;34.54;60.98
31225;BME280;17847;31.524;74.366;2023-07-02T10:59:49;97396.19;;;34.51;60.60
31225;BME280;17847;31.524;74.366;2023-07-02T11:02:19;97390.25;;;34.45;61.60
31225;BME280;17847;31.524;74.366;2023-07-02T11:04:48;97387.84;;;34.44;59.70
31225;BME280;17847;31.524;74.366;2023-07-02T11:07:37;97385.84;;;34.37;59.55
31225;BME280;17847;31.524;74.366;2023-07-02T11:10:08;97383.09;;;34.34;60.30
31225;BME280;17847;31.524;74.366;2023-07-02T11:12:38;97378.84;;;34.43;59.85
31225;BME280;17847;31.524;74.366;2023-07-02T11:15:15;97377.25;;;34.42;61.80
31225;BME280;17847;31.524;74.366;2023-07-02T11:17:49;97380.41;;;34.44;62.19
31225;BME280;17847;31.524;74.366;2023-07-02T11:20:18;97382.00;;;34.45;62.37
31225;BME280;17847;31.524;74.366;2023-07-02T11:22:48;97376.47;;;34.42;63.02
31225;BME280;17847;31.524;74.366;2023-07-02T11:25:21;97374.50;;;34.39;61.85
31225;BME280;17847;31.524;74.366;2023-07-02T11:28:02;97374.84;;;34.34;62.19
31225;BME280;17847;31.524;74.366;2023-07-02T11:30:33;97373.63;;;34.31;62.43
31225;BME280;17847;31.524;74.366;2023-07-02T11:33:05;97367.31;;;34.31;62.09
31225;BME280;17847;31.524;74.366;2023-07-02T11:35:34;97365.41;;;34.35;62.07
31225;BME280;17847;31.524;74.366;2023-07-02T11:38:06;97369.03;;;34.46;59.07
31225;BME280;17847;31.524;74.366;2023-07-02T11:40:37;97365.53;;;34.52;60.26
31225;BME280;17847;31.524;74.366;2023-07-02T11:43:06;97353.00;;;34.58;58.09
31225;BME280;17847;31.524;74.366;2023-07-02T11:45:36;97359.41;;;34.69;56.85
31225;BME280;17847;31.524;74.366;2023-07-02T11:48:05;97356.72;;;34.80;57.95
31225;BME280;17847;31.524;74.366;2023-07-02T11:50:35;97353.59;;;34.82;57.62
31225;BME280;17847;31.524;74.366;2023-07-02T11:53:04;97351.28;;;34.87;59.19
31225;BME280;17847;31.524;74.366;2023-07-02T11:55:35;97351.28;;;34.94;59.42
31225;BME280;17847;31.524;74.366;2023-07-02T11:58:05;97351.72;;;34.96;61.13
31225;BME280;17847;31.524;74.366;2023-07-02T12:00:35;97350.13;;;34.95;58.14
31225;BME280;17847;31.524;74.366;2023-07-02T12:03:04;97346.59;;;34.95;59.21
31225;BME280;17847;31.524;74.366;2023-07-02T12:05:34;97338.72;;;34.93;59.33
31225;BME280;17847;31.524;74.366;2023-07-02T12:08:04;97336.34;;;34.92;60.01
31225;BME280;17847;31.524;74.366;2023-07-02T12:10:34;97325.34;;;34.92;58.35
31225;BME280;17847;31.524;74.366;2023-07-02T12:13:06;97330.06;;;34.91;60.24
31225;BME280;17847;31.524;74.366;2023-07-02T12:15:35;97334.34;;;34.85;59.71
31225;BME280;17847;31.524;74.366;2023-07-02T12:18:10;97326.47;;;34.84;60.48
31225;BME280;17847;31.524;74.366;2023-07-02T12:20:41;97335.94;;;34.90;60.00
31225;BME280;17847;31.524;74.366;2023-07-02T12:23:12;97337.88;;;34.86;59.12
31225;BME280;17847;31.524;74.366;2023-07-02T12:25:41;97330.81;;;34.85;59.71
31225;BME280;17847;31.524;74.366;2023-07-02T12:28:12;97331.22;;;34.90;58.32
31225;BME280;17847;31.524;74.366;2023-07-02T12:30:41;97326.13;;;34.92;56.62
31225;BME280;17847;31.524;74.366;2023-07-02T12:33:11;97332.03;;;34.91;56.41
31225;BME280;17847;31.524;74.366;2023-07-02T12:35:44;97328.41;;;34.83;59.26
31225;BME280;17847;31.524;74.366;2023-07-02T12:38:15;97321.72;;;34.74;58.38
31225;BME280;17847;31.524;74.366;2023-07-02T12:40:47;97320.50;;;34.67;60.45
31225;BME280;17847;31.524;74.366;2023-07-02T12:43:17;97314.94;;;34.60;58.71
31225;BME280;17847;31.524;74.366;2023-07-02T12:45:49;97326.66;;;34.57;58.51
31225;BME280;17847;31.524;74.366;2023-07-02T12:48:19;97322.38;;;34.56;59.15
31225;BME280;17847;31.524;74.366;2023-07-02T12:50:56;97329.00;;;34.52;60.05
31225;BME280;17847;31.524;74.366;2023-07-02T12:53:27;97329.84;;;34.59;57.99
31225;BME280;17847;31.524;74.366;2023-07-02T12:55:57;97322.72;;;34.51;60.08
31225;BME280;17847;31.524;74.366;2023-07-02T12:58:26;97320.69;;;34.41;60.80
31225;BME280;17847;31.524;74.366;2023-07-02T13:00:56;97335.19;;;34.38;57.74
31225;BME280;17847;31.524;74.366;2023-07-02T13:03:25;97325.28;;;34.30;58.91
31225;BME280;17847;31.524;74.366;2023-07-02T13:05:55;97327.22;;;34.26;57.43
31225;BME280;17847;31.524;74.366;2023-07-02T13:08:25;97328.38;;;34.21;58.45
31225;BME280;17847;31.524;74.366;2023-07-02T13:10:55;97330.25;;;34.14;59.45